This is the latest recevied weather packets stored in our database for station/object AB1AU. If no packets are shown the sender has not sent any weather packets the latest 10 day(s).
| Time | Temp. | Humidity | Pressure | Rain* | Wind** | Luminosity | Snow |
|---|---|---|---|---|---|---|---|
| 1777564579 | 7.78° C | 94% | 1010.6 hPa | 0 mm | - | 88 W/m² | - |
| 1777564275 | 7.78° C | 94% | 1010.5 hPa | 0 mm | - | 90 W/m² | - |
| 1777563971 | 7.78° C | 94% | 1010.7 hPa | 0 mm | - | 83 W/m² | - |
| 1777563668 | 7.78° C | 94% | 1010.6 hPa | 0 mm | - | 98 W/m² | - |
| 1777563362 | 7.78° C | 94% | 1010.6 hPa | 0 mm | - | 97 W/m² | - |
| 1777563058 | 7.78° C | 94% | 1010.6 hPa | 0 mm | - | 84 W/m² | - |
| 1777562754 | 7.78° C | 94% | 1010.8 hPa | 0 mm | - | 90 W/m² | - |
| 1777562453 | 7.78° C | 95% | 1010.5 hPa | 0 mm | - | 99 W/m² | - |
| 1777562149 | 7.78° C | 95% | 1010.8 hPa | 0 mm | - | 108 W/m² | - |
| 1777561847 | 7.78° C | 95% | 1010.6 hPa | 0 mm | - | 120 W/m² | - |
| 1777561544 | 7.22° C | 95% | 1010.7 hPa | 0 mm | - | 115 W/m² | - |
| 1777561239 | 7.22° C | 95% | 1010.8 hPa | 1.27 mm | - | 95 W/m² | - |
| 1777560938 | 7.22° C | 95% | 1010.7 hPa | 1.27 mm | - | 89 W/m² | - |
| 1777560635 | 7.22° C | 95% | 1010.8 hPa | 0 mm | - | 103 W/m² | - |
| 1777560333 | 7.78° C | 95% | 1011 hPa | 0 mm | - | 83 W/m² | - |
| 1777560031 | 7.22° C | 95% | 1011.1 hPa | 1.78 mm | - | 94 W/m² | - |
| 1777559726 | 7.22° C | 95% | 1011.1 hPa | 1.78 mm | - | 93 W/m² | - |
| 1777559424 | 7.22° C | 95% | 1010.9 hPa | 1.27 mm | - | 111 W/m² | - |
| 1777559121 | 7.22° C | 95% | 1010.9 hPa | 1.27 mm | - | 99 W/m² | - |
| 1777558820 | 7.22° C | 95% | 1011.1 hPa | 1.78 mm | - | 78 W/m² | - |
| 1777558516 | 7.22° C | 95% | 1011.2 hPa | 1.78 mm | - | 71 W/m² | - |
| 1777558213 | 7.22° C | 95% | 1011.3 hPa | 3.05 mm | - | 54 W/m² | - |
| 1777557909 | 7.22° C | 95% | 1011.1 hPa | 1.27 mm | - | 72 W/m² | - |
| 1777557606 | 7.22° C | 95% | 1011.4 hPa | 0 mm | - | 44 W/m² | - |
| 1777557302 | 7.22° C | 95% | 1011.2 hPa | 0 mm | - | 59 W/m² | - |
* Rain latest hour (hover to see other rain measurements)
** Current wind speed in m/s (hover to see current wind gust speed)